createdAt,value
2018-09-09T00:02:14.367Z,60.53
2018-09-09T00:04:43.469Z,60.11
2018-09-09T00:07:12.569Z,60.05
2018-09-09T00:09:46.684Z,60.75
2018-09-09T00:12:15.863Z,60.59
2018-09-09T00:14:44.767Z,60.54
2018-09-09T00:17:13.877Z,60.48
2018-09-09T00:19:43.079Z,61.24
2018-09-09T00:22:12.013Z,60.93
2018-09-09T00:24:47.584Z,60.65
2018-09-09T00:27:16.814Z,61.30
2018-09-09T00:29:45.800Z,60.82
2018-09-09T00:32:14.932Z,61.45
2018-09-09T00:34:43.889Z,61.14
2018-09-09T00:37:13.545Z,61.73
2018-09-09T00:39:42.484Z,61.60
2018-09-09T00:42:12.107Z,60.84
2018-09-09T00:44:41.278Z,61.26
2018-09-09T00:47:10.649Z,61.71
2018-09-09T00:49:44.656Z,60.95
2018-09-09T00:52:18.914Z,61.84
2018-09-09T00:54:47.899Z,61.46
2018-09-09T00:57:16.980Z,61.01
2018-09-09T00:59:46.314Z,61.83
2018-09-09T01:02:15.596Z,61.83
2018-09-09T01:04:44.633Z,61.51
2018-09-09T01:07:14.290Z,61.55
2018-09-09T01:09:43.822Z,61.84
2018-09-09T01:12:13.159Z,61.80
2018-09-09T01:14:42.144Z,61.69
2018-09-09T01:17:11.468Z,62.11
2018-09-09T01:19:41.098Z,61.93
2018-09-09T01:22:10.321Z,61.57
2018-09-09T01:24:39.877Z,61.83
2018-09-09T01:27:08.989Z,61.42
2018-09-09T01:29:38.465Z,61.51
2018-09-09T01:32:07.583Z,62.32
2018-09-09T01:34:36.581Z,62.22
2018-09-09T01:37:05.770Z,62.27
2018-09-09T01:39:34.846Z,62.00
2018-09-09T01:42:03.784Z,61.86
2018-09-09T01:44:33.262Z,62.54
2018-09-09T01:47:02.774Z,62.71
2018-09-09T01:49:31.983Z,62.01
2018-09-09T01:52:01.498Z,62.21
2018-09-09T01:54:30.752Z,62.69
2018-09-09T01:56:59.852Z,62.28
2018-09-09T01:59:29.406Z,62.37
2018-09-09T02:01:58.773Z,63.00
2018-09-09T02:04:27.783Z,62.50
2018-09-09T02:06:56.760Z,62.76
2018-09-09T02:09:25.858Z,62.93
2018-09-09T02:11:54.786Z,62.36
2018-09-09T02:14:23.949Z,62.86
2018-09-09T02:16:52.989Z,62.55
2018-09-09T02:19:22.375Z,62.62
2018-09-09T02:21:51.743Z,62.59
2018-09-09T02:24:21.282Z,62.67
2018-09-09T02:26:56.907Z,63.04
2018-09-09T02:29:26.433Z,62.95
2018-09-09T02:31:55.308Z,62.20
2018-09-09T02:34:24.494Z,62.72
2018-09-09T02:36:53.958Z,63.02
2018-09-09T02:39:23.142Z,62.90
2018-09-09T02:41:52.177Z,62.96
2018-09-09T02:44:21.632Z,63.21
2018-09-09T02:46:51.029Z,62.68
2018-09-09T02:49:20.206Z,63.16
2018-09-09T02:51:49.327Z,63.60
2018-09-09T02:54:18.263Z,63.52
2018-09-09T02:56:47.374Z,63.85
2018-09-09T02:59:16.720Z,63.51
2018-09-09T03:01:45.771Z,63.46
2018-09-09T03:04:15.193Z,63.56
2018-09-09T03:06:44.458Z,63.68
2018-09-09T03:09:13.482Z,63.31
2018-09-09T03:11:43.587Z,63.69
2018-09-09T03:14:12.703Z,63.94
2018-09-09T03:16:41.895Z,63.78
2018-09-09T03:19:10.997Z,63.81
2018-09-09T03:21:39.958Z,63.81
2018-09-09T03:24:08.879Z,63.93
2018-09-09T03:26:38.201Z,63.87
2018-09-09T03:29:07.484Z,63.78
2018-09-09T03:31:36.508Z,63.91
2018-09-09T03:34:05.623Z,64.18
2018-09-09T03:36:34.665Z,64.22
2018-09-09T03:39:05.088Z,64.34
2018-09-09T03:41:34.047Z,64.24
2018-09-09T03:44:03.237Z,64.11
2018-09-09T03:46:32.279Z,64.39
2018-09-09T03:49:01.674Z,64.34
2018-09-09T03:51:30.801Z,64.26
2018-09-09T03:53:59.959Z,64.31
2018-09-09T03:56:29.069Z,64.43
2018-09-09T03:58:58.092Z,64.69
2018-09-09T04:01:27.112Z,64.44
2018-09-09T04:03:56.398Z,64.50
2018-09-09T04:06:25.712Z,64.35
2018-09-09T04:08:54.854Z,64.36
2018-09-09T04:11:23.976Z,64.40
2018-09-09T04:13:53.037Z,64.47
2018-09-09T04:16:22.338Z,64.39
2018-09-09T04:18:51.517Z,64.55
2018-09-09T04:21:21.218Z,64.48
2018-09-09T04:23:50.219Z,64.64
2018-09-09T04:26:19.311Z,64.36
2018-09-09T04:28:48.415Z,64.51
2018-09-09T04:31:17.584Z,64.49
2018-09-09T04:33:46.737Z,64.79
2018-09-09T04:36:15.848Z,64.71
2018-09-09T04:38:44.836Z,64.43
2018-09-09T04:41:14.402Z,64.66
2018-09-09T04:43:43.341Z,64.38
2018-09-09T04:46:12.588Z,64.58
2018-09-09T04:48:42.313Z,64.54
2018-09-09T04:51:11.507Z,64.51
2018-09-09T04:53:40.500Z,64.60
2018-09-09T04:56:09.632Z,64.34
2018-09-09T04:58:38.859Z,64.45
2018-09-09T05:01:07.765Z,64.46
2018-09-09T05:03:36.908Z,64.26
2018-09-09T05:06:06.313Z,64.15
2018-09-09T05:08:35.241Z,64.43
2018-09-09T05:11:04.329Z,64.08
2018-09-09T05:13:34.858Z,64.19
2018-09-09T05:16:03.899Z,64.29
2018-09-09T05:18:33.389Z,64.13
2018-09-09T05:21:02.475Z,64.31
2018-09-09T05:23:31.534Z,63.88
2018-09-09T05:26:00.493Z,64.09
2018-09-09T05:28:29.584Z,64.17
2018-09-09T05:30:58.606Z,64.11
2018-09-09T05:33:27.572Z,63.95
2018-09-09T05:35:56.791Z,63.32
2018-09-09T05:38:26.019Z,63.63
2018-09-09T05:40:55.090Z,63.50
2018-09-09T05:43:24.043Z,63.43
2018-09-09T05:45:54.763Z,63.06
2018-09-09T05:48:23.877Z,63.38
2018-09-09T05:50:52.880Z,63.21
2018-09-09T05:53:22.002Z,63.12
2018-09-09T05:55:51.375Z,63.12
2018-09-09T05:58:20.857Z,63.04
2018-09-09T06:00:49.890Z,62.63
2018-09-09T06:03:19.010Z,62.43
2018-09-09T06:05:49.193Z,62.45
2018-09-09T06:08:18.269Z,62.70
2018-09-09T06:10:51.514Z,62.85
2018-09-09T06:13:20.831Z,63.29
2018-09-09T06:15:49.818Z,63.83
2018-09-09T06:18:19.359Z,63.85
2018-09-09T06:20:48.634Z,64.23
2018-09-09T06:23:17.728Z,64.12
2018-09-09T06:25:48.076Z,63.98
2018-09-09T06:28:17.353Z,63.79
2018-09-09T06:30:46.632Z,63.41
2018-09-09T06:33:15.675Z,63.53
2018-09-09T06:35:44.739Z,63.64
2018-09-09T06:38:14.335Z,63.22
2018-09-09T06:40:43.250Z,62.64
2018-09-09T06:43:12.737Z,63.36
2018-09-09T06:45:41.754Z,63.14
2018-09-09T06:48:11.415Z,62.98
2018-09-09T06:50:40.527Z,62.95
2018-09-09T06:53:09.638Z,63.28
2018-09-09T06:55:38.843Z,63.29
2018-09-09T06:58:08.743Z,62.75
2018-09-09T07:00:37.672Z,63.23
2018-09-09T07:03:07.135Z,62.75
2018-09-09T07:05:36.156Z,62.41
2018-09-09T07:08:05.283Z,62.34
2018-09-09T07:10:34.483Z,62.08
2018-09-09T07:13:03.524Z,60.93
2018-09-09T07:15:32.519Z,59.89
2018-09-09T07:18:01.981Z,60.33
2018-09-09T07:20:31.062Z,60.53
2018-09-09T07:23:00.470Z,60.16
2018-09-09T07:25:29.610Z,60.73
2018-09-09T07:27:58.640Z,60.69
2018-09-09T07:30:27.736Z,60.64
2018-09-09T07:32:57.055Z,61.02
2018-09-09T07:35:26.150Z,61.41
2018-09-09T07:37:55.636Z,61.87
2018-09-09T07:40:24.551Z,61.20
2018-09-09T07:42:53.814Z,61.71
2018-09-09T07:45:23.012Z,61.93
2018-09-09T07:47:52.319Z,61.77
2018-09-09T07:50:21.374Z,61.42
2018-09-09T07:52:50.628Z,61.88
2018-09-09T07:55:19.736Z,61.13
2018-09-09T07:57:50.219Z,60.94
2018-09-09T08:00:19.340Z,61.17
2018-09-09T08:02:48.202Z,60.29
2018-09-09T08:05:17.193Z,59.60
2018-09-09T08:07:46.933Z,60.09
2018-09-09T08:10:16.872Z,60.24
2018-09-09T08:12:45.975Z,60.48
2018-09-09T08:15:15.229Z,60.32
2018-09-09T08:17:44.570Z,59.88
2018-09-09T08:20:13.936Z,59.96
2018-09-09T08:22:43.155Z,60.71
2018-09-09T08:25:12.315Z,60.87
2018-09-09T08:27:41.448Z,61.37
2018-09-09T08:30:10.608Z,59.98
2018-09-09T08:32:39.577Z,60.53
2018-09-09T08:35:08.844Z,59.83
2018-09-09T08:37:37.890Z,60.22
2018-09-09T08:40:07.794Z,59.65
2018-09-09T08:42:36.712Z,60.10
2018-09-09T08:45:06.534Z,60.23
2018-09-09T08:47:35.750Z,60.40
2018-09-09T08:50:04.770Z,59.94
2018-09-09T08:52:33.986Z,59.71
2018-09-09T08:55:03.148Z,58.99
2018-09-09T08:57:32.573Z,59.35
2018-09-09T09:00:02.190Z,59.27
2018-09-09T09:02:31.700Z,58.82
2018-09-09T09:05:00.658Z,58.14
2018-09-09T09:07:30.256Z,58.22
2018-09-09T09:10:00.576Z,58.58
2018-09-09T09:12:29.976Z,57.83
2018-09-09T09:14:59.118Z,57.68
2018-09-09T09:17:28.226Z,57.84
2018-09-09T09:19:57.522Z,56.99
2018-09-09T09:22:26.907Z,56.86
2018-09-09T09:24:55.894Z,57.26
2018-09-09T09:27:25.019Z,56.23
2018-09-09T09:29:57.715Z,56.27
2018-09-09T09:32:27.174Z,55.67
2018-09-09T09:34:56.975Z,55.66
2018-09-09T09:37:26.848Z,54.97
2018-09-09T09:39:56.566Z,54.69
2018-09-09T09:42:25.963Z,54.11
2018-09-09T09:44:55.767Z,53.20
2018-09-09T09:47:24.929Z,54.29
2018-09-09T09:49:54.882Z,54.09
2018-09-09T09:52:24.114Z,52.62
2018-09-09T09:54:53.176Z,52.24
2018-09-09T09:57:22.937Z,50.89
2018-09-09T09:59:53.377Z,50.72
2018-09-09T10:02:22.552Z,50.58
2018-09-09T10:04:52.270Z,49.72
2018-09-09T10:07:21.312Z,50.33
2018-09-09T10:09:50.336Z,49.58
2018-09-09T10:12:19.900Z,48.25
2018-09-09T10:14:49.049Z,47.19
2018-09-09T10:17:18.392Z,44.86
2018-09-09T10:19:47.708Z,43.17
2018-09-09T10:22:17.024Z,41.95
2018-09-09T10:24:46.456Z,41.27
2018-09-09T10:27:16.473Z,39.86
2018-09-09T10:29:45.606Z,38.36
2018-09-09T10:32:15.172Z,40.56
2018-09-09T10:34:44.232Z,40.25
2018-09-09T10:37:13.391Z,40.47
2018-09-09T10:39:42.613Z,41.13
2018-09-09T10:42:11.699Z,40.97
2018-09-09T10:44:41.563Z,41.54
2018-09-09T10:47:17.111Z,41.63
2018-09-09T10:49:46.316Z,41.88
2018-09-09T10:52:15.219Z,40.83
2018-09-09T10:54:44.319Z,38.21
2018-09-09T10:57:13.306Z,38.28
2018-09-09T10:59:43.098Z,38.08
2018-09-09T11:02:12.271Z,39.88
2018-09-09T11:04:47.623Z,39.87
2018-09-09T11:07:16.740Z,39.29
2018-09-09T11:09:45.822Z,39.17
2018-09-09T11:12:15.189Z,39.49
2018-09-09T11:14:44.165Z,38.75
2018-09-09T11:17:13.160Z,39.62
2018-09-09T11:19:42.343Z,39.31
2018-09-09T11:22:13.601Z,39.20
2018-09-09T11:24:42.952Z,38.72
2018-09-09T11:27:12.194Z,37.92
2018-09-09T11:29:41.391Z,38.25
2018-09-09T11:32:10.590Z,38.55
2018-09-09T11:34:39.804Z,38.77
2018-09-09T11:37:08.973Z,38.62
2018-09-09T11:39:38.338Z,38.33
2018-09-09T11:42:07.327Z,37.92
2018-09-09T11:44:36.763Z,36.83
2018-09-09T11:47:06.188Z,36.36
2018-09-09T11:49:35.464Z,36.63
2018-09-09T11:52:04.426Z,36.86
2018-09-09T11:54:33.531Z,37.84
2018-09-09T11:57:02.587Z,37.95
2018-09-09T11:59:31.515Z,37.13
2018-09-09T12:02:00.596Z,37.60
2018-09-09T12:04:29.942Z,36.84
2018-09-09T12:06:59.209Z,36.20
2018-09-09T12:09:28.296Z,36.87
2018-09-09T12:11:57.171Z,35.73
2018-09-09T12:14:26.409Z,36.01
2018-09-09T12:16:55.375Z,36.35
2018-09-09T12:19:24.664Z,36.48
2018-09-09T12:21:53.914Z,37.03
2018-09-09T12:24:23.258Z,36.87
2018-09-09T12:26:52.296Z,36.38
2018-09-09T12:29:21.307Z,36.62
2018-09-09T12:31:50.297Z,36.72
2018-09-09T12:34:26.185Z,35.63
2018-09-09T12:36:55.447Z,35.16
2018-09-09T12:39:24.595Z,35.18
2018-09-09T12:41:53.594Z,34.73
2018-09-09T12:44:27.770Z,34.44
2018-09-09T12:47:02.089Z,34.66
2018-09-09T12:49:31.440Z,34.96
2018-09-09T12:52:00.417Z,34.56
2018-09-09T12:54:29.681Z,33.96
2018-09-09T12:57:01.265Z,34.36
2018-09-09T12:59:30.494Z,33.14
2018-09-09T13:01:59.408Z,34.17
2018-09-09T13:04:28.558Z,33.40
2018-09-09T13:06:57.601Z,33.29
2018-09-09T13:09:26.702Z,33.33
2018-09-09T13:11:55.743Z,33.31
2018-09-09T13:14:24.880Z,33.66
2018-09-09T13:16:53.869Z,33.52
2018-09-09T13:19:22.885Z,33.04
2018-09-09T13:21:52.046Z,33.25
2018-09-09T13:24:21.328Z,32.63
2018-09-09T13:26:50.956Z,33.01
2018-09-09T13:29:19.942Z,32.01
2018-09-09T13:31:49.064Z,32.84
2018-09-09T13:34:18.065Z,31.75
2018-09-09T13:36:47.463Z,32.40
2018-09-09T13:39:16.437Z,32.82
2018-09-09T13:41:45.798Z,31.87
2018-09-09T13:44:15.124Z,31.95
2018-09-09T13:46:44.312Z,32.18
2018-09-09T13:49:13.357Z,32.37
2018-09-09T13:51:42.344Z,32.92
2018-09-09T13:54:11.562Z,32.95
2018-09-09T13:56:40.654Z,32.19
2018-09-09T13:59:10.075Z,32.16
2018-09-09T14:01:39.206Z,32.62
2018-09-09T14:04:08.230Z,33.18
2018-09-09T14:06:37.945Z,32.88
2018-09-09T14:09:08.338Z,32.64
2018-09-09T14:11:37.791Z,32.69
2018-09-09T14:14:06.901Z,33.10
2018-09-09T14:16:36.496Z,32.98
2018-09-09T14:19:05.829Z,32.66
2018-09-09T14:21:34.821Z,32.86
2018-09-09T14:24:03.814Z,32.50
2018-09-09T14:26:33.041Z,32.12
2018-09-09T14:29:02.766Z,32.50
2018-09-09T14:31:31.797Z,31.61
2018-09-09T14:34:01.242Z,32.07
2018-09-09T14:36:30.371Z,31.90
2018-09-09T14:38:59.836Z,31.14
2018-09-09T14:41:29.312Z,31.92
2018-09-09T14:43:58.465Z,31.14
2018-09-09T14:46:27.887Z,31.99
2018-09-09T14:48:56.877Z,31.12
2018-09-09T14:51:25.965Z,31.88
2018-09-09T14:53:55.040Z,30.99
2018-09-09T14:56:24.212Z,31.99
2018-09-09T14:58:53.513Z,32.10
2018-09-09T15:01:22.530Z,31.52
2018-09-09T15:03:51.826Z,31.31
2018-09-09T15:06:21.119Z,31.76
2018-09-09T15:08:50.240Z,31.49
2018-09-09T15:11:19.572Z,31.58
2018-09-09T15:13:48.810Z,31.82
2018-09-09T15:16:17.864Z,31.06
2018-09-09T15:18:47.251Z,31.56
2018-09-09T15:21:16.672Z,32.05
2018-09-09T15:23:45.744Z,31.73
2018-09-09T15:26:14.961Z,30.87
2018-09-09T15:28:44.015Z,31.02
2018-09-09T15:31:13.285Z,30.84
2018-09-09T15:33:42.412Z,31.72
2018-09-09T15:36:11.395Z,31.27
2018-09-09T15:38:40.757Z,31.51
2018-09-09T15:41:09.811Z,31.93
2018-09-09T15:43:38.970Z,30.77
2018-09-09T15:46:08.171Z,30.55
2018-09-09T15:48:38.006Z,30.89
2018-09-09T15:51:07.331Z,30.94
2018-09-09T15:53:36.323Z,31.00
2018-09-09T15:56:05.391Z,30.34
2018-09-09T15:58:34.571Z,30.74
2018-09-09T16:01:04.006Z,31.44
2018-09-09T16:03:33.408Z,30.90
2018-09-09T16:06:02.346Z,30.97
2018-09-09T16:08:31.434Z,31.54
2018-09-09T16:11:01.103Z,31.65
2018-09-09T16:13:30.328Z,32.28
2018-09-09T16:15:59.893Z,32.86
2018-09-09T16:18:28.929Z,33.22
2018-09-09T16:20:58.626Z,33.63
2018-09-09T16:23:27.942Z,33.91
2018-09-09T16:25:57.572Z,34.51
2018-09-09T16:28:26.665Z,34.69
2018-09-09T16:30:55.635Z,34.63
2018-09-09T16:33:24.878Z,35.09
2018-09-09T16:35:53.929Z,35.39
2018-09-09T16:38:23.019Z,36.50
2018-09-09T16:40:52.092Z,36.01
2018-09-09T16:43:21.076Z,36.31
2018-09-09T16:45:50.066Z,37.26
2018-09-09T16:48:19.479Z,37.49
2018-09-09T16:50:49.252Z,36.91
2018-09-09T16:53:18.448Z,37.81
2018-09-09T16:55:47.681Z,37.74
2018-09-09T16:58:16.805Z,37.62
2018-09-09T17:00:45.788Z,37.06
2018-09-09T17:03:14.829Z,37.04
2018-09-09T17:05:43.820Z,36.97
2018-09-09T17:08:13.106Z,37.68
2018-09-09T17:10:42.130Z,37.77
2018-09-09T17:13:12.044Z,38.10
2018-09-09T17:15:41.150Z,37.94
2018-09-09T17:18:10.358Z,38.03
2018-09-09T17:20:39.542Z,38.08
2018-09-09T17:23:08.439Z,38.41
2018-09-09T17:25:38.250Z,38.55
2018-09-09T17:28:07.385Z,38.71
2018-09-09T17:30:36.599Z,38.49
2018-09-09T17:33:05.671Z,38.60
2018-09-09T17:35:34.753Z,38.92
2018-09-09T17:38:04.683Z,39.02
2018-09-09T17:40:33.764Z,38.18
2018-09-09T17:43:03.073Z,39.29
2018-09-09T17:45:32.183Z,39.08
2018-09-09T17:48:01.390Z,39.04
2018-09-09T17:50:30.494Z,39.06
2018-09-09T17:52:59.510Z,38.98
2018-09-09T17:55:28.763Z,39.24
2018-09-09T17:57:57.828Z,39.22
2018-09-09T18:00:27.044Z,39.25
2018-09-09T18:02:56.194Z,39.95
2018-09-09T18:05:25.832Z,39.36
2018-09-09T18:07:54.796Z,39.54
2018-09-09T18:10:23.798Z,39.82
2018-09-09T18:12:53.007Z,40.17
2018-09-09T18:15:22.268Z,40.61
2018-09-09T18:17:51.352Z,40.37
2018-09-09T18:20:20.714Z,40.80
2018-09-09T18:22:49.950Z,40.41
2018-09-09T18:25:19.037Z,40.97
2018-09-09T18:27:48.099Z,40.82
2018-09-09T18:30:17.275Z,40.64
2018-09-09T18:32:46.357Z,40.41
2018-09-09T18:35:15.435Z,41.03
2018-09-09T18:37:44.763Z,41.02
2018-09-09T18:40:13.879Z,41.02
2018-09-09T18:42:43.195Z,41.34
2018-09-09T18:45:12.514Z,41.88
2018-09-09T18:47:42.071Z,42.05
2018-09-09T18:50:11.173Z,41.97
2018-09-09T18:52:40.173Z,41.90
2018-09-09T18:55:09.291Z,42.82
2018-09-09T18:57:38.427Z,43.13
2018-09-09T19:00:08.374Z,43.27
2018-09-09T19:02:40.424Z,43.39
2018-09-09T19:05:09.778Z,42.92
2018-09-09T19:07:38.727Z,43.33
2018-09-09T19:10:08.479Z,43.46
2018-09-09T19:12:37.627Z,43.79
2018-09-09T19:15:07.034Z,44.40
2018-09-09T19:17:36.191Z,45.28
2018-09-09T19:20:05.164Z,45.73
2018-09-09T19:22:34.398Z,45.91
2018-09-09T19:25:03.616Z,46.29
2018-09-09T19:27:32.850Z,46.56
2018-09-09T19:30:01.794Z,47.70
2018-09-09T19:32:30.930Z,48.04
2018-09-09T19:34:59.877Z,48.05
2018-09-09T19:37:28.952Z,48.29
2018-09-09T19:39:58.342Z,48.69
2018-09-09T19:42:27.908Z,49.65
2018-09-09T19:44:57.099Z,49.51
2018-09-09T19:47:26.242Z,49.04
2018-09-09T19:49:56.330Z,49.79
2018-09-09T19:52:25.698Z,49.43
2018-09-09T19:54:55.032Z,49.59
2018-09-09T19:57:24.413Z,49.95
2018-09-09T19:59:53.745Z,50.31
2018-09-09T20:02:23.394Z,49.63
2018-09-09T20:04:52.696Z,49.97
2018-09-09T20:07:22.358Z,49.58
2018-09-09T20:09:51.667Z,49.71
2018-09-09T20:12:21.119Z,49.84
2018-09-09T20:14:50.373Z,50.10
2018-09-09T20:17:20.542Z,50.06
2018-09-09T20:19:49.721Z,50.63
2018-09-09T20:22:19.458Z,50.20
2018-09-09T20:24:48.932Z,50.07
2018-09-09T20:27:18.161Z,50.21
2018-09-09T20:29:47.300Z,50.35
2018-09-09T20:32:16.353Z,50.63
2018-09-09T20:34:45.616Z,50.25
2018-09-09T20:37:14.753Z,50.52
2018-09-09T20:39:44.181Z,50.74
2018-09-09T20:42:13.327Z,50.43
2018-09-09T20:44:43.112Z,50.28
2018-09-09T20:47:12.436Z,50.71
2018-09-09T20:49:41.795Z,50.72
2018-09-09T20:52:11.036Z,51.30
2018-09-09T20:54:40.332Z,51.47
2018-09-09T20:57:09.656Z,50.99
2018-09-09T20:59:39.006Z,50.89
2018-09-09T21:02:08.531Z,50.75
2018-09-09T21:04:38.284Z,51.09
2018-09-09T21:07:07.516Z,50.75
2018-09-09T21:09:36.708Z,51.28
2018-09-09T21:12:06.855Z,50.89
2018-09-09T21:14:35.902Z,51.50
2018-09-09T21:17:04.972Z,51.03
2018-09-09T21:19:34.400Z,51.58
2018-09-09T21:22:03.473Z,51.39
2018-09-09T21:24:32.682Z,50.84
2018-09-09T21:27:01.881Z,51.59
2018-09-09T21:29:31.654Z,51.28
2018-09-09T21:32:01.259Z,51.69
2018-09-09T21:34:30.588Z,51.45
2018-09-09T21:36:59.910Z,52.29
2018-09-09T21:39:29.086Z,51.77
2018-09-09T21:41:58.425Z,52.34
2018-09-09T21:44:27.657Z,52.63
2018-09-09T21:46:56.900Z,52.72
2018-09-09T21:49:26.145Z,52.59
2018-09-09T21:51:55.163Z,51.87
2018-09-09T21:54:24.446Z,52.29
2018-09-09T21:56:53.968Z,51.76
2018-09-09T21:59:23.041Z,51.66
2018-09-09T22:01:57.045Z,52.03
2018-09-09T22:04:26.232Z,52.22
2018-09-09T22:06:55.378Z,52.54
2018-09-09T22:09:24.354Z,52.16
2018-09-09T22:11:53.309Z,52.20
2018-09-09T22:14:23.271Z,52.88
2018-09-09T22:16:52.306Z,52.49
2018-09-09T22:19:21.587Z,52.46
2018-09-09T22:21:50.863Z,53.26
2018-09-09T22:24:21.154Z,53.20
2018-09-09T22:26:50.302Z,53.31
2018-09-09T22:29:19.494Z,53.31
2018-09-09T22:31:49.976Z,52.72
2018-09-09T22:34:19.082Z,53.35
2018-09-09T22:36:48.101Z,53.88
2018-09-09T22:39:17.304Z,54.12
2018-09-09T22:41:46.581Z,54.05
2018-09-09T22:44:15.644Z,54.08
2018-09-09T22:46:44.915Z,54.20
2018-09-09T22:49:14.189Z,54.24
2018-09-09T22:51:43.231Z,53.97
2018-09-09T22:54:12.585Z,53.60
2018-09-09T22:56:41.748Z,54.46
2018-09-09T22:59:10.866Z,54.12
2018-09-09T23:01:40.113Z,53.97
2018-09-09T23:04:09.313Z,54.10
2018-09-09T23:06:38.550Z,54.60
2018-09-09T23:09:10.097Z,53.93
2018-09-09T23:11:39.026Z,54.57
2018-09-09T23:14:08.730Z,54.19
2018-09-09T23:16:38.804Z,53.73
2018-09-09T23:19:08.014Z,54.46
2018-09-09T23:21:37.671Z,53.95
2018-09-09T23:24:07.062Z,54.64
2018-09-09T23:26:36.093Z,53.93
2018-09-09T23:29:05.139Z,53.92
2018-09-09T23:31:34.348Z,54.54
2018-09-09T23:34:03.322Z,54.56
2018-09-09T23:36:33.271Z,55.03
2018-09-09T23:39:02.663Z,55.12
2018-09-09T23:41:31.661Z,55.17
2018-09-09T23:44:00.816Z,54.62
2018-09-09T23:46:29.976Z,54.61
2018-09-09T23:48:59.197Z,55.50
2018-09-09T23:51:28.496Z,55.31
2018-09-09T23:53:57.826Z,55.26
2018-09-09T23:56:27.107Z,55.21
2018-09-09T23:58:55.989Z,55.56
